NFC9348 SBSV-SBGL
Flight info
| Callsign | NFC9348 |
|---|---|
| Flight time | 1h 40m |
| Altitude | 34000 |
| Route | GEDEX3A IRUMI UN857 MOLSU UTBOM2A |
| Aircraft | B77L/H-SDE1E2E3FGHIJ2J3J4J5M1RWXY/LB1D1 |
Departure
| Time | 2026-05-06 14:01 |
|---|---|
| Airport | Deputado Luiz Eduardo Magalhães International Airport (SBSV) |
Arrival
| Time | 2026-05-06 15:42 |
|---|---|
| Airport | Rio Galeão – Tom Jobim International Airport (SBGL) |
| Time | Latitude | Longitude | Altitude | Speed | Heading |
|---|---|---|---|---|---|
| 2026-05-06 13:25 | -12.91243 | -38.32626 | 56 ft | 0 kts | 168° |
| 2026-05-06 13:55 | -12.91223 | -38.32630 | 49 ft | 4 kts | 174° |
| 2026-05-06 13:55 | -12.91196 | -38.32631 | 48 ft | 4 kts | 187° |
| 2026-05-06 13:56 | -12.91170 | -38.32624 | 48 ft | 4 kts | 213° |
| 2026-05-06 13:56 | -12.91157 | -38.32609 | 48 ft | 1 kts | 258° |
| 2026-05-06 13:58 | -12.91166 | -38.32654 | 50 ft | 12 kts | 258° |
| 2026-05-06 13:58 | -12.91183 | -38.32737 | 53 ft | 12 kts | 258° |
| 2026-05-06 13:58 | -12.91201 | -38.32819 | 51 ft | 12 kts | 258° |
| 2026-05-06 13:59 | -12.91218 | -38.32901 | 47 ft | 12 kts | 258° |
| 2026-05-06 13:59 | -12.91237 | -38.32993 | 54 ft | 14 kts | 258° |
| 2026-05-06 13:59 | -12.91245 | -38.33101 | 46 ft | 17 kts | 297° |
| 2026-05-06 13:59 | -12.91210 | -38.33213 | 48 ft | 17 kts | 259° |
| 2026-05-06 14:00 | -12.91214 | -38.33336 | 48 ft | 17 kts | 285° |
| 2026-05-06 14:00 | -12.91153 | -38.33436 | 48 ft | 17 kts | 321° |
| 2026-05-06 14:00 | -12.91088 | -38.33398 | 47 ft | 14 kts | 78° |
| 2026-05-06 14:00 | -12.91029 | -38.33105 | 46 ft | 81 kts | 78° |
| 2026-05-06 14:01 | -12.90859 | -38.32261 | 52 ft | 159 kts | 77° |
| 2026-05-06 14:01 | -12.90608 | -38.30987 | 409 ft | 194 kts | 83° |
| 2026-05-06 14:01 | -12.90340 | -38.29542 | 1047 ft | 214 kts | 84° |
| 2026-05-06 14:01 | -12.90068 | -38.28056 | 1973 ft | 213 kts | 83° |
| 2026-05-06 14:02 | -12.90190 | -38.26512 | 2420 ft | 229 kts | 117° |
| 2026-05-06 14:02 | -12.91316 | -38.25338 | 3184 ft | 241 kts | 151° |
| 2026-05-06 14:02 | -12.92929 | -38.24830 | 3917 ft | 252 kts | 166° |
| 2026-05-06 14:02 | -12.94671 | -38.24489 | 4881 ft | 256 kts | 167° |
| 2026-05-06 14:03 | -12.96443 | -38.24158 | 5833 ft | 261 kts | 167° |
| 2026-05-06 14:03 | -12.98251 | -38.23823 | 6733 ft | 268 kts | 166° |
| 2026-05-06 14:03 | -13.00110 | -38.23476 | 7564 ft | 274 kts | 166° |
| 2026-05-06 14:03 | -13.02004 | -38.23121 | 8466 ft | 280 kts | 167° |
| 2026-05-06 14:04 | -13.03936 | -38.22755 | 9341 ft | 285 kts | 167° |
| 2026-05-06 14:04 | -13.05898 | -38.22381 | 10193 ft | 290 kts | 167° |
| 2026-05-06 14:04 | -13.07925 | -38.21992 | 10773 ft | 306 kts | 167° |
| 2026-05-06 14:04 | -13.10119 | -38.21568 | 10964 ft | 335 kts | 167° |
| 2026-05-06 14:05 | -13.12471 | -38.21114 | 11171 ft | 362 kts | 167° |
| 2026-05-06 14:05 | -13.15019 | -38.20712 | 11557 ft | 378 kts | 175° |
| 2026-05-06 14:05 | -13.17688 | -38.20748 | 12232 ft | 388 kts | 181° |
| 2026-05-06 14:05 | -13.20403 | -38.20930 | 13045 ft | 394 kts | 182° |
| 2026-05-06 14:06 | -13.23148 | -38.21131 | 13914 ft | 398 kts | 182° |
| 2026-05-06 14:06 | -13.25923 | -38.21327 | 14657 ft | 402 kts | 182° |
| 2026-05-06 14:06 | -13.28725 | -38.21510 | 15403 ft | 405 kts | 183° |
| 2026-05-06 14:06 | -13.31555 | -38.21682 | 16134 ft | 410 kts | 182° |
| 2026-05-06 14:07 | -13.34413 | -38.21845 | 16873 ft | 413 kts | 183° |
| 2026-05-06 14:07 | -13.37257 | -38.22001 | 17586 ft | 417 kts | 182° |
| 2026-05-06 14:07 | -13.40168 | -38.22156 | 18307 ft | 421 kts | 183° |
| 2026-05-06 14:07 | -13.43109 | -38.22312 | 18895 ft | 425 kts | 183° |
| 2026-05-06 14:08 | -13.46073 | -38.22467 | 19510 ft | 428 kts | 184° |
| 2026-05-06 14:08 | -13.49053 | -38.22624 | 20182 ft | 429 kts | 184° |
| 2026-05-06 14:08 | -13.52047 | -38.22782 | 20799 ft | 432 kts | 184° |
| 2026-05-06 14:08 | -13.55064 | -38.22940 | 21397 ft | 436 kts | 185° |
| 2026-05-06 14:09 | -13.58108 | -38.23100 | 21927 ft | 440 kts | 185° |
| 2026-05-06 14:09 | -13.61182 | -38.23262 | 22480 ft | 444 kts | 184° |
| 2026-05-06 14:09 | -13.64284 | -38.23426 | 23037 ft | 448 kts | 185° |
| 2026-05-06 14:09 | -13.67363 | -38.23588 | 23610 ft | 450 kts | 185° |
| 2026-05-06 14:10 | -13.70505 | -38.23754 | 24077 ft | 454 kts | 185° |
| 2026-05-06 14:10 | -13.73669 | -38.23921 | 24510 ft | 457 kts | 185° |
| 2026-05-06 14:10 | -13.76860 | -38.24089 | 24940 ft | 461 kts | 185° |
| 2026-05-06 14:10 | -13.80073 | -38.24259 | 25378 ft | 464 kts | 185° |
| 2026-05-06 14:11 | -13.83310 | -38.24430 | 25822 ft | 468 kts | 185° |
| 2026-05-06 14:11 | -13.86572 | -38.24602 | 26265 ft | 471 kts | 185° |
| 2026-05-06 14:11 | -13.89859 | -38.24776 | 26694 ft | 475 kts | 185° |
| 2026-05-06 14:11 | -13.93169 | -38.24951 | 27140 ft | 478 kts | 185° |
| 2026-05-06 14:12 | -13.96502 | -38.25127 | 27576 ft | 481 kts | 185° |
| 2026-05-06 14:12 | -13.99814 | -38.25302 | 28006 ft | 485 kts | 185° |
| 2026-05-06 14:12 | -14.03238 | -38.25483 | 28432 ft | 488 kts | 185° |
| 2026-05-06 14:12 | -14.06592 | -38.25660 | 28832 ft | 491 kts | 185° |
| 2026-05-06 14:13 | -14.10021 | -38.25842 | 29220 ft | 495 kts | 185° |
| 2026-05-06 14:13 | -14.13460 | -38.26024 | 29649 ft | 497 kts | 185° |
| 2026-05-06 14:13 | -14.16915 | -38.26206 | 30171 ft | 496 kts | 185° |
| 2026-05-06 14:13 | -14.20357 | -38.26387 | 30677 ft | 494 kts | 185° |
| 2026-05-06 14:14 | -14.23786 | -38.26568 | 31236 ft | 492 kts | 185° |
| 2026-05-06 14:14 | -14.27187 | -38.26748 | 31781 ft | 489 kts | 185° |
| 2026-05-06 14:14 | -14.30579 | -38.26927 | 32297 ft | 487 kts | 185° |
| 2026-05-06 14:14 | -14.33957 | -38.27106 | 32782 ft | 485 kts | 185° |
| 2026-05-06 14:15 | -14.37283 | -38.27283 | 33233 ft | 484 kts | 185° |
| 2026-05-06 14:15 | -14.40642 | -38.27462 | 33684 ft | 484 kts | 185° |
| 2026-05-06 14:15 | -14.43999 | -38.27640 | 34102 ft | 483 kts | 185° |
| 2026-05-06 14:15 | -14.47361 | -38.27819 | 34098 ft | 485 kts | 185° |
| 2026-05-06 14:16 | -14.54078 | -38.28176 | 34111 ft | 482 kts | 185° |
| 2026-05-06 14:16 | -14.60780 | -38.28532 | 34113 ft | 482 kts | 185° |
| 2026-05-06 14:17 | -14.67486 | -38.28888 | 34123 ft | 483 kts | 185° |
| 2026-05-06 14:17 | -14.74149 | -38.29243 | 34117 ft | 483 kts | 185° |
| 2026-05-06 14:18 | -14.80861 | -38.29600 | 34114 ft | 483 kts | 185° |
| 2026-05-06 14:18 | -14.87572 | -38.29958 | 34112 ft | 483 kts | 185° |
| 2026-05-06 14:19 | -14.94281 | -38.30315 | 34118 ft | 483 kts | 185° |
| 2026-05-06 14:19 | -15.00861 | -38.31193 | 34110 ft | 479 kts | 197° |
| 2026-05-06 14:20 | -15.07069 | -38.33583 | 34120 ft | 475 kts | 208° |
| 2026-05-06 14:20 | -15.12912 | -38.36796 | 34122 ft | 475 kts | 210° |
| 2026-05-06 14:21 | -15.18740 | -38.40026 | 34121 ft | 476 kts | 209° |
| 2026-05-06 14:21 | -15.24557 | -38.43210 | 34132 ft | 476 kts | 209° |
| 2026-05-06 14:22 | -15.30408 | -38.46390 | 34125 ft | 475 kts | 208° |
| 2026-05-06 14:22 | -15.36250 | -38.49564 | 34124 ft | 474 kts | 209° |
| 2026-05-06 14:23 | -15.42080 | -38.52735 | 34125 ft | 473 kts | 209° |
| 2026-05-06 14:23 | -15.47894 | -38.55901 | 34127 ft | 472 kts | 208° |
| 2026-05-06 14:24 | -15.53667 | -38.59046 | 34132 ft | 472 kts | 209° |
| 2026-05-06 14:24 | -15.59482 | -38.62216 | 34131 ft | 472 kts | 209° |
| 2026-05-06 14:25 | -15.65293 | -38.65386 | 34134 ft | 472 kts | 209° |
| 2026-05-06 14:25 | -15.71101 | -38.68557 | 34145 ft | 471 kts | 208° |
| 2026-05-06 14:26 | -15.76862 | -38.71704 | 34129 ft | 471 kts | 208° |
| 2026-05-06 14:26 | -15.82651 | -38.74869 | 34135 ft | 470 kts | 208° |
| 2026-05-06 14:27 | -15.88431 | -38.78029 | 34136 ft | 469 kts | 208° |
| 2026-05-06 14:27 | -15.94200 | -38.81186 | 34135 ft | 469 kts | 208° |
| 2026-05-06 14:28 | -15.99976 | -38.84349 | 34144 ft | 469 kts | 208° |
| 2026-05-06 14:28 | -16.05754 | -38.87515 | 34138 ft | 470 kts | 208° |
| 2026-05-06 14:29 | -16.11497 | -38.90664 | 34137 ft | 470 kts | 208° |
| 2026-05-06 14:29 | -16.17288 | -38.93843 | 34141 ft | 471 kts | 208° |
| 2026-05-06 14:30 | -16.23088 | -38.97027 | 34139 ft | 472 kts | 208° |
| 2026-05-06 14:30 | -16.28920 | -39.00164 | 34135 ft | 472 kts | 208° |
| 2026-05-06 14:31 | -16.34776 | -39.03269 | 34132 ft | 473 kts | 208° |
| 2026-05-06 14:31 | -16.40637 | -39.06394 | 34130 ft | 473 kts | 208° |
| 2026-05-06 14:32 | -16.46446 | -39.09520 | 34135 ft | 473 kts | 208° |
| 2026-05-06 14:32 | -16.52243 | -39.12774 | 34131 ft | 473 kts | 209° |
| 2026-05-06 14:33 | -16.58022 | -39.16047 | 34138 ft | 472 kts | 209° |
| 2026-05-06 14:33 | -16.63790 | -39.19300 | 34140 ft | 471 kts | 209° |
| 2026-05-06 14:34 | -16.69511 | -39.22518 | 34147 ft | 470 kts | 209° |
| 2026-05-06 14:34 | -16.75257 | -39.25750 | 34153 ft | 469 kts | 209° |
| 2026-05-06 14:35 | -16.80996 | -39.28982 | 34148 ft | 469 kts | 209° |
| 2026-05-06 14:35 | -16.86733 | -39.32217 | 34154 ft | 469 kts | 209° |
| 2026-05-06 14:36 | -16.92432 | -39.35432 | 34161 ft | 469 kts | 208° |
| 2026-05-06 14:36 | -16.98172 | -39.38672 | 34156 ft | 469 kts | 208° |
| 2026-05-06 14:37 | -17.03908 | -39.41912 | 34165 ft | 469 kts | 208° |
| 2026-05-06 14:37 | -17.09642 | -39.45148 | 34162 ft | 468 kts | 208° |
| 2026-05-06 14:38 | -17.15337 | -39.48367 | 34159 ft | 468 kts | 208° |
| 2026-05-06 14:38 | -17.21070 | -39.51610 | 34152 ft | 468 kts | 208° |
| 2026-05-06 14:39 | -17.26799 | -39.54853 | 34153 ft | 469 kts | 208° |
| 2026-05-06 14:39 | -17.32535 | -39.58102 | 34166 ft | 469 kts | 208° |
| 2026-05-06 14:40 | -17.38228 | -39.61330 | 34159 ft | 468 kts | 208° |
| 2026-05-06 14:40 | -17.43948 | -39.64574 | 34166 ft | 467 kts | 208° |
| 2026-05-06 14:41 | -17.49662 | -39.67818 | 34167 ft | 467 kts | 208° |
| 2026-05-06 14:41 | -17.55371 | -39.71061 | 34165 ft | 466 kts | 208° |
| 2026-05-06 14:42 | -17.61073 | -39.74303 | 34150 ft | 466 kts | 208° |
| 2026-05-06 14:42 | -17.66735 | -39.77525 | 34175 ft | 466 kts | 208° |
| 2026-05-06 14:43 | -17.72437 | -39.80771 | 34158 ft | 466 kts | 208° |
| 2026-05-06 14:43 | -17.78138 | -39.84020 | 34163 ft | 466 kts | 208° |
| 2026-05-06 14:44 | -17.83830 | -39.87264 | 34169 ft | 465 kts | 208° |
| 2026-05-06 14:45 | -17.92311 | -39.92105 | 34170 ft | 464 kts | 208° |
| 2026-05-06 14:45 | -17.97984 | -39.95346 | 34173 ft | 464 kts | 208° |
| 2026-05-06 14:46 | -18.03659 | -39.98584 | 34155 ft | 464 kts | 208° |
| 2026-05-06 14:46 | -18.09345 | -40.01807 | 34171 ft | 464 kts | 208° |
| 2026-05-06 14:47 | -18.14986 | -40.05005 | 34179 ft | 464 kts | 208° |
| 2026-05-06 14:47 | -18.20674 | -40.08235 | 34176 ft | 464 kts | 208° |
| 2026-05-06 14:48 | -18.26348 | -40.11462 | 34160 ft | 464 kts | 208° |
| 2026-05-06 14:48 | -18.32023 | -40.14691 | 34175 ft | 464 kts | 208° |
| 2026-05-06 14:49 | -18.37701 | -40.17925 | 34181 ft | 464 kts | 208° |
| 2026-05-06 14:49 | -18.43335 | -40.21136 | 34185 ft | 464 kts | 208° |
| 2026-05-06 14:50 | -18.49010 | -40.24373 | 34172 ft | 464 kts | 208° |
| 2026-05-06 14:50 | -18.54683 | -40.27611 | 34180 ft | 463 kts | 207° |
| 2026-05-06 14:51 | -18.60345 | -40.30846 | 34172 ft | 463 kts | 207° |
| 2026-05-06 14:51 | -18.66007 | -40.34083 | 34191 ft | 463 kts | 207° |
| 2026-05-06 14:52 | -18.71633 | -40.37301 | 34182 ft | 463 kts | 207° |
| 2026-05-06 14:52 | -18.77295 | -40.40543 | 34196 ft | 463 kts | 207° |
| 2026-05-06 14:53 | -18.81995 | -40.43236 | 34182 ft | 463 kts | 207° |
| 2026-05-06 14:53 | -18.88610 | -40.47029 | 34184 ft | 463 kts | 208° |
| 2026-05-06 14:54 | -18.94221 | -40.50249 | 34200 ft | 462 kts | 207° |
| 2026-05-06 14:54 | -18.99865 | -40.53491 | 34183 ft | 462 kts | 207° |
| 2026-05-06 14:55 | -19.05504 | -40.56733 | 34193 ft | 461 kts | 207° |
| 2026-05-06 14:55 | -19.11132 | -40.59970 | 34190 ft | 460 kts | 207° |
| 2026-05-06 14:56 | -19.15808 | -40.62661 | 34205 ft | 460 kts | 207° |
| 2026-05-06 14:56 | -19.22335 | -40.66421 | 34188 ft | 459 kts | 207° |
| 2026-05-06 14:57 | -19.27950 | -40.69659 | 34184 ft | 460 kts | 207° |
| 2026-05-06 14:57 | -19.32610 | -40.72348 | 34193 ft | 458 kts | 207° |
| 2026-05-06 14:58 | -19.38200 | -40.75576 | 34183 ft | 458 kts | 207° |
| 2026-05-06 14:58 | -19.43783 | -40.78802 | 34186 ft | 457 kts | 207° |
| 2026-05-06 14:59 | -19.50269 | -40.82554 | 34183 ft | 457 kts | 207° |
| 2026-05-06 14:59 | -19.54906 | -40.85238 | 34193 ft | 456 kts | 207° |
| 2026-05-06 15:00 | -19.60478 | -40.88464 | 34182 ft | 456 kts | 207° |
| 2026-05-06 15:00 | -19.66049 | -40.91683 | 34176 ft | 456 kts | 207° |
| 2026-05-06 15:01 | -19.71609 | -40.94897 | 34180 ft | 455 kts | 207° |
| 2026-05-06 15:01 | -19.77158 | -40.98114 | 34179 ft | 454 kts | 207° |
| 2026-05-06 15:02 | -19.82667 | -41.01308 | 34211 ft | 454 kts | 207° |
| 2026-05-06 15:02 | -19.88210 | -41.04529 | 34193 ft | 453 kts | 207° |
| 2026-05-06 15:03 | -19.93726 | -41.07775 | 34199 ft | 453 kts | 208° |
| 2026-05-06 15:03 | -19.99246 | -41.11033 | 34197 ft | 454 kts | 208° |
| 2026-05-06 15:04 | -20.04767 | -41.14288 | 34200 ft | 454 kts | 208° |
| 2026-05-06 15:04 | -20.10255 | -41.17526 | 34200 ft | 454 kts | 208° |
| 2026-05-06 15:05 | -20.15789 | -41.20792 | 34204 ft | 455 kts | 208° |
| 2026-05-06 15:05 | -20.21331 | -41.24057 | 34203 ft | 455 kts | 208° |
| 2026-05-06 15:06 | -20.26876 | -41.27324 | 34213 ft | 455 kts | 208° |
| 2026-05-06 15:06 | -20.32381 | -41.30577 | 34210 ft | 456 kts | 208° |
| 2026-05-06 15:07 | -20.37930 | -41.33854 | 34206 ft | 456 kts | 208° |
| 2026-05-06 15:07 | -20.43475 | -41.37133 | 34206 ft | 456 kts | 208° |
| 2026-05-06 15:08 | -20.49025 | -41.40417 | 34204 ft | 456 kts | 208° |
| 2026-05-06 15:08 | -20.54579 | -41.43689 | 34205 ft | 456 kts | 208° |
| 2026-05-06 15:09 | -20.60097 | -41.46931 | 34198 ft | 456 kts | 208° |
| 2026-05-06 15:09 | -20.65652 | -41.50197 | 34203 ft | 456 kts | 208° |
| 2026-05-06 15:10 | -20.71206 | -41.53469 | 34207 ft | 456 kts | 208° |
| 2026-05-06 15:10 | -20.76756 | -41.56742 | 34199 ft | 456 kts | 208° |
| 2026-05-06 15:11 | -20.82267 | -41.59995 | 34196 ft | 456 kts | 208° |
| 2026-05-06 15:11 | -20.87816 | -41.63272 | 34201 ft | 456 kts | 208° |
| 2026-05-06 15:12 | -20.93366 | -41.66553 | 34197 ft | 456 kts | 208° |
| 2026-05-06 15:12 | -20.98925 | -41.69843 | 34196 ft | 457 kts | 208° |
| 2026-05-06 15:13 | -21.04487 | -41.73137 | 34192 ft | 457 kts | 208° |
| 2026-05-06 15:13 | -21.10052 | -41.76435 | 34187 ft | 457 kts | 208° |
| 2026-05-06 15:14 | -21.15571 | -41.79710 | 34187 ft | 457 kts | 208° |
| 2026-05-06 15:14 | -21.21129 | -41.83009 | 34186 ft | 457 kts | 208° |
| 2026-05-06 15:15 | -21.26688 | -41.86308 | 34187 ft | 456 kts | 208° |
| 2026-05-06 15:15 | -21.32246 | -41.89609 | 34181 ft | 456 kts | 208° |
| 2026-05-06 15:16 | -21.37757 | -41.92886 | 34186 ft | 456 kts | 208° |
| 2026-05-06 15:16 | -21.43306 | -41.96188 | 34188 ft | 456 kts | 208° |
| 2026-05-06 15:17 | -21.48856 | -41.99494 | 34167 ft | 456 kts | 208° |
| 2026-05-06 15:17 | -21.54404 | -42.02803 | 34172 ft | 456 kts | 208° |
| 2026-05-06 15:18 | -21.59948 | -42.06112 | 34183 ft | 456 kts | 208° |
| 2026-05-06 15:18 | -21.65492 | -42.09421 | 34192 ft | 456 kts | 208° |
| 2026-05-06 15:19 | -21.71001 | -42.12715 | 34185 ft | 456 kts | 208° |
| 2026-05-06 15:19 | -21.76548 | -42.16035 | 34186 ft | 456 kts | 208° |
| 2026-05-06 15:20 | -21.82099 | -42.19360 | 34011 ft | 458 kts | 208° |
| 2026-05-06 15:20 | -21.84891 | -42.21033 | 33317 ft | 459 kts | 208° |
| 2026-05-06 15:20 | -21.87662 | -42.22701 | 32754 ft | 453 kts | 208° |
| 2026-05-06 15:20 | -21.90358 | -42.24328 | 32216 ft | 448 kts | 208° |
| 2026-05-06 15:21 | -21.93061 | -42.25962 | 31683 ft | 443 kts | 208° |
| 2026-05-06 15:21 | -21.95736 | -42.27579 | 31154 ft | 439 kts | 208° |
| 2026-05-06 15:21 | -21.98389 | -42.29181 | 30645 ft | 436 kts | 208° |
| 2026-05-06 15:21 | -22.01020 | -42.30771 | 30080 ft | 432 kts | 208° |
| 2026-05-06 15:22 | -22.03635 | -42.32351 | 29498 ft | 429 kts | 209° |
| 2026-05-06 15:22 | -22.06229 | -42.33920 | 28936 ft | 425 kts | 209° |
| 2026-05-06 15:22 | -22.08615 | -42.35724 | 28399 ft | 419 kts | 224° |
| 2026-05-06 15:22 | -22.10414 | -42.38167 | 27981 ft | 416 kts | 237° |
| 2026-05-06 15:23 | -22.11638 | -42.40974 | 27591 ft | 414 kts | 250° |
| 2026-05-06 15:23 | -22.12378 | -42.43938 | 27269 ft | 417 kts | 253° |
| 2026-05-06 15:23 | -22.13076 | -42.46985 | 26902 ft | 421 kts | 254° |
| 2026-05-06 15:23 | -22.13774 | -42.50060 | 26528 ft | 422 kts | 254° |
| 2026-05-06 15:24 | -22.14481 | -42.53130 | 26161 ft | 421 kts | 254° |
| 2026-05-06 15:24 | -22.15198 | -42.56183 | 25779 ft | 420 kts | 254° |
| 2026-05-06 15:24 | -22.15923 | -42.59231 | 25412 ft | 419 kts | 254° |
| 2026-05-06 15:24 | -22.16651 | -42.62266 | 25047 ft | 417 kts | 254° |
| 2026-05-06 15:25 | -22.17377 | -42.65292 | 24673 ft | 416 kts | 254° |
| 2026-05-06 15:25 | -22.18100 | -42.68301 | 24303 ft | 414 kts | 254° |
| 2026-05-06 15:25 | -22.18811 | -42.71263 | 23925 ft | 412 kts | 254° |
| 2026-05-06 15:25 | -22.19525 | -42.74244 | 23519 ft | 409 kts | 254° |
| 2026-05-06 15:26 | -22.20234 | -42.77206 | 23133 ft | 406 kts | 254° |
| 2026-05-06 15:26 | -22.20939 | -42.80149 | 22757 ft | 403 kts | 254° |
| 2026-05-06 15:26 | -22.21635 | -42.83063 | 22386 ft | 400 kts | 255° |
| 2026-05-06 15:26 | -22.22326 | -42.85952 | 22033 ft | 396 kts | 255° |
| 2026-05-06 15:27 | -22.23010 | -42.88824 | 21719 ft | 393 kts | 255° |
| 2026-05-06 15:27 | -22.23686 | -42.91667 | 21391 ft | 390 kts | 255° |
| 2026-05-06 15:27 | -22.24361 | -42.94494 | 21075 ft | 388 kts | 255° |
| 2026-05-06 15:27 | -22.25030 | -42.97301 | 20764 ft | 386 kts | 255° |
| 2026-05-06 15:28 | -22.25697 | -43.00101 | 20451 ft | 384 kts | 255° |
| 2026-05-06 15:28 | -22.26352 | -43.02858 | 20120 ft | 384 kts | 255° |
| 2026-05-06 15:28 | -22.27016 | -43.05661 | 19703 ft | 387 kts | 255° |
| 2026-05-06 15:28 | -22.27682 | -43.08466 | 19284 ft | 386 kts | 255° |
| 2026-05-06 15:29 | -22.28344 | -43.11264 | 18852 ft | 383 kts | 255° |
| 2026-05-06 15:29 | -22.29002 | -43.14038 | 18428 ft | 380 kts | 255° |
| 2026-05-06 15:29 | -22.29653 | -43.16796 | 17963 ft | 378 kts | 255° |
| 2026-05-06 15:29 | -22.30300 | -43.19530 | 17538 ft | 374 kts | 255° |
| 2026-05-06 15:30 | -22.30943 | -43.22244 | 17099 ft | 371 kts | 255° |
| 2026-05-06 15:30 | -22.31580 | -43.24942 | 16690 ft | 370 kts | 255° |
| 2026-05-06 15:30 | -22.32205 | -43.27593 | 16310 ft | 369 kts | 255° |
| 2026-05-06 15:30 | -22.32839 | -43.30283 | 15908 ft | 370 kts | 255° |
| 2026-05-06 15:31 | -22.33475 | -43.32984 | 15506 ft | 372 kts | 256° |
| 2026-05-06 15:31 | -22.34110 | -43.35684 | 15107 ft | 371 kts | 256° |
| 2026-05-06 15:31 | -22.34743 | -43.38375 | 14680 ft | 368 kts | 256° |
| 2026-05-06 15:32 | -22.35997 | -43.43716 | 13877 ft | 365 kts | 256° |
| 2026-05-06 15:32 | -22.36743 | -43.46303 | 13411 ft | 358 kts | 243° |
| 2026-05-06 15:32 | -22.38234 | -43.48436 | 12964 ft | 358 kts | 221° |
| 2026-05-06 15:32 | -22.40312 | -43.49904 | 12529 ft | 358 kts | 204° |
| 2026-05-06 15:33 | -22.42623 | -43.50876 | 12120 ft | 351 kts | 199° |
| 2026-05-06 15:33 | -22.44815 | -43.51748 | 11913 ft | 321 kts | 199° |
| 2026-05-06 15:33 | -22.46815 | -43.52552 | 11545 ft | 302 kts | 200° |
| 2026-05-06 15:33 | -22.48740 | -43.53343 | 10981 ft | 291 kts | 200° |
| 2026-05-06 15:34 | -22.50614 | -43.54122 | 10329 ft | 286 kts | 200° |
| 2026-05-06 15:34 | -22.52461 | -43.54894 | 9586 ft | 284 kts | 200° |
| 2026-05-06 15:34 | -22.54289 | -43.55657 | 9018 ft | 278 kts | 198° |
| 2026-05-06 15:34 | -22.56168 | -43.55978 | 8550 ft | 276 kts | 171° |
| 2026-05-06 15:35 | -22.57977 | -43.55344 | 8118 ft | 272 kts | 150° |
| 2026-05-06 15:35 | -22.59659 | -43.54407 | 7717 ft | 273 kts | 152° |
| 2026-05-06 15:35 | -22.61388 | -43.53502 | 7170 ft | 279 kts | 152° |
| 2026-05-06 15:35 | -22.63125 | -43.52600 | 6700 ft | 281 kts | 151° |
| 2026-05-06 15:36 | -22.64678 | -43.51380 | 6195 ft | 276 kts | 130° |
| 2026-05-06 15:36 | -22.65864 | -43.49755 | 5742 ft | 276 kts | 123° |
| 2026-05-06 15:36 | -22.66956 | -43.48050 | 5331 ft | 275 kts | 123° |
| 2026-05-06 15:36 | -22.68035 | -43.46379 | 4839 ft | 264 kts | 124° |
| 2026-05-06 15:37 | -22.69078 | -43.44792 | 4333 ft | 252 kts | 124° |
| 2026-05-06 15:37 | -22.70073 | -43.43290 | 3924 ft | 239 kts | 124° |
| 2026-05-06 15:37 | -22.71024 | -43.41852 | 3501 ft | 228 kts | 124° |
| 2026-05-06 15:37 | -22.71907 | -43.40509 | 3153 ft | 211 kts | 124° |
| 2026-05-06 15:38 | -22.72747 | -43.39241 | 3083 ft | 202 kts | 124° |
| 2026-05-06 15:38 | -22.73554 | -43.38020 | 3075 ft | 202 kts | 124° |
| 2026-05-06 15:38 | -22.74336 | -43.36838 | 3090 ft | 185 kts | 123° |
| 2026-05-06 15:38 | -22.75064 | -43.35748 | 2749 ft | 175 kts | 125° |
| 2026-05-06 15:39 | -22.75763 | -43.34685 | 2408 ft | 174 kts | 124° |
| 2026-05-06 15:39 | -22.76426 | -43.33631 | 1903 ft | 171 kts | 124° |
| 2026-05-06 15:39 | -22.77101 | -43.32612 | 1449 ft | 161 kts | 125° |
| 2026-05-06 15:39 | -22.77725 | -43.31670 | 1058 ft | 148 kts | 126° |
| 2026-05-06 15:40 | -22.78295 | -43.30798 | 776 ft | 139 kts | 124° |
| 2026-05-06 15:40 | -22.78843 | -43.29923 | 697 ft | 141 kts | 126° |
| 2026-05-06 15:40 | -22.79443 | -43.29055 | 652 ft | 146 kts | 128° |
| 2026-05-06 15:40 | -22.80044 | -43.28187 | 402 ft | 143 kts | 127° |
| 2026-05-06 15:41 | -22.80605 | -43.27304 | 237 ft | 139 kts | 128° |
| 2026-05-06 15:41 | -22.81178 | -43.26450 | 89 ft | 141 kts | 128° |
| 2026-05-06 15:41 | -22.81749 | -43.25605 | 28 ft | 129 kts | 126° |
| 2026-05-06 15:41 | -22.82168 | -43.24979 | 28 ft | 76 kts | 126° |
| 2026-05-06 15:42 | -22.82397 | -43.24631 | 26 ft | 54 kts | 125° |
| 2026-05-06 15:42 | -22.82598 | -43.24332 | 27 ft | 45 kts | 126° |
| 2026-05-06 15:42 | -22.82720 | -43.24198 | 27 ft | 20 kts | 155° |
| 2026-05-06 15:42 | -22.82854 | -43.24174 | 26 ft | 17 kts | 190° |
| 2026-05-06 15:43 | -22.82949 | -43.24114 | 31 ft | 14 kts | 154° |
| 2026-05-06 15:43 | -22.83014 | -43.24101 | 31 ft | 8 kts | 211° |
| 2026-05-06 15:43 | -22.83033 | -43.24115 | 28 ft | 0 kts | 214° |